sensor_id;sensor_type;location;lat;lon;timestamp;P1;durP1;ratioP1;P2;durP2;ratioP2
31298;SDS011;17927;52.350;13.402;2023-08-24T00:01:19;3.60;;;3.30;;
31298;SDS011;17927;52.350;13.402;2023-08-24T00:03:44;5.43;;;3.15;;
31298;SDS011;17927;52.350;13.402;2023-08-24T00:06:11;3.92;;;3.38;;
31298;SDS011;17927;52.350;13.402;2023-08-24T00:08:36;3.88;;;3.53;;
31298;SDS011;17927;52.350;13.402;2023-08-24T00:11:02;5.25;;;3.58;;
31298;SDS011;17927;52.350;13.402;2023-08-24T00:13:27;3.60;;;3.30;;
31298;SDS011;17927;52.350;13.402;2023-08-24T00:15:53;3.88;;;3.58;;
31298;SDS011;17927;52.350;13.402;2023-08-24T00:18:19;9.48;;;3.65;;
31298;SDS011;17927;52.350;13.402;2023-08-24T00:20:46;6.82;;;3.45;;
31298;SDS011;17927;52.350;13.402;2023-08-24T00:23:12;6.70;;;3.47;;
31298;SDS011;17927;52.350;13.402;2023-08-24T00:25:38;5.93;;;3.53;;
31298;SDS011;17927;52.350;13.402;2023-08-24T00:28:03;4.20;;;3.22;;
31298;SDS011;17927;52.350;13.402;2023-08-24T00:30:29;4.07;;;3.67;;
31298;SDS011;17927;52.350;13.402;2023-08-24T00:32:54;4.15;;;3.30;;
31298;SDS011;17927;52.350;13.402;2023-08-24T00:35:19;4.10;;;3.70;;
31298;SDS011;17927;52.350;13.402;2023-08-24T00:37:45;3.97;;;3.33;;
31298;SDS011;17927;52.350;13.402;2023-08-24T00:40:10;5.05;;;3.58;;
31298;SDS011;17927;52.350;13.402;2023-08-24T00:42:42;3.80;;;3.47;;
31298;SDS011;17927;52.350;13.402;2023-08-24T00:45:10;7.53;;;3.58;;
31298;SDS011;17927;52.350;13.402;2023-08-24T00:47:40;3.58;;;3.28;;
31298;SDS011;17927;52.350;13.402;2023-08-24T00:50:11;3.08;;;2.85;;
31298;SDS011;17927;52.350;13.402;2023-08-24T00:52:37;4.35;;;3.90;;
31298;SDS011;17927;52.350;13.402;2023-08-24T00:55:05;3.83;;;3.55;;
31298;SDS011;17927;52.350;13.402;2023-08-24T00:57:31;4.78;;;4.00;;
31298;SDS011;17927;52.350;13.402;2023-08-24T00:59:56;3.92;;;3.63;;
31298;SDS011;17927;52.350;13.402;2023-08-24T01:02:24;6.15;;;4.00;;
31298;SDS011;17927;52.350;13.402;2023-08-24T01:04:50;4.30;;;3.38;;
31298;SDS011;17927;52.350;13.402;2023-08-24T01:07:15;3.67;;;3.13;;
31298;SDS011;17927;52.350;13.402;2023-08-24T01:09:42;4.00;;;3.70;;
31298;SDS011;17927;52.350;13.402;2023-08-24T01:17:25;3.85;;;3.50;;
31298;SDS011;17927;52.350;13.402;2023-08-24T01:19:54;3.45;;;3.25;;
31298;SDS011;17927;52.350;13.402;2023-08-24T01:24:53;6.28;;;3.80;;
31298;SDS011;17927;52.350;13.402;2023-08-24T01:27:25;4.35;;;3.10;;
31298;SDS011;17927;52.350;13.402;2023-08-24T01:29:51;4.68;;;3.40;;
31298;SDS011;17927;52.350;13.402;2023-08-24T01:32:21;3.25;;;2.92;;
31298;SDS011;17927;52.350;13.402;2023-08-24T01:34:46;3.78;;;3.42;;
31298;SDS011;17927;52.350;13.402;2023-08-24T01:37:11;3.33;;;2.90;;
31298;SDS011;17927;52.350;13.402;2023-08-24T01:39:47;3.35;;;2.92;;
31298;SDS011;17927;52.350;13.402;2023-08-24T01:42:20;4.35;;;2.88;;
31298;SDS011;17927;52.350;13.402;2023-08-24T01:44:49;2.85;;;2.65;;
31298;SDS011;17927;52.350;13.402;2023-08-24T01:47:17;3.20;;;3.00;;
31298;SDS011;17927;52.350;13.402;2023-08-24T01:49:44;3.75;;;3.40;;
31298;SDS011;17927;52.350;13.402;2023-08-24T01:52:10;3.75;;;3.42;;
31298;SDS011;17927;52.350;13.402;2023-08-24T01:54:36;4.32;;;2.88;;
31298;SDS011;17927;52.350;13.402;2023-08-24T01:57:04;4.25;;;3.30;;
31298;SDS011;17927;52.350;13.402;2023-08-24T01:59:29;3.45;;;3.15;;
31298;SDS011;17927;52.350;13.402;2023-08-24T02:01:55;3.75;;;3.55;;
31298;SDS011;17927;52.350;13.402;2023-08-24T02:04:20;4.30;;;3.60;;
31298;SDS011;17927;52.350;13.402;2023-08-24T02:06:45;3.28;;;3.08;;
31298;SDS011;17927;52.350;13.402;2023-08-24T02:09:10;3.40;;;3.10;;
31298;SDS011;17927;52.350;13.402;2023-08-24T02:11:35;4.70;;;3.05;;
31298;SDS011;17927;52.350;13.402;2023-08-24T02:14:01;3.40;;;3.20;;
31298;SDS011;17927;52.350;13.402;2023-08-24T02:16:26;3.45;;;2.70;;
31298;SDS011;17927;52.350;13.402;2023-08-24T02:18:51;3.97;;;2.90;;
31298;SDS011;17927;52.350;13.402;2023-08-24T02:21:16;2.90;;;2.72;;
31298;SDS011;17927;52.350;13.402;2023-08-24T02:23:42;4.32;;;3.00;;
31298;SDS011;17927;52.350;13.402;2023-08-24T02:26:07;3.50;;;3.20;;
31298;SDS011;17927;52.350;13.402;2023-08-24T02:28:33;4.03;;;3.25;;
31298;SDS011;17927;52.350;13.402;2023-08-24T02:31:02;5.40;;;3.33;;
31298;SDS011;17927;52.350;13.402;2023-08-24T02:33:27;4.88;;;4.10;;
31298;SDS011;17927;52.350;13.402;2023-08-24T02:35:53;12.63;;;4.30;;
31298;SDS011;17927;52.350;13.402;2023-08-24T02:38:18;5.32;;;4.70;;
31298;SDS011;17927;52.350;13.402;2023-08-24T02:40:43;3.58;;;3.35;;
31298;SDS011;17927;52.350;13.402;2023-08-24T02:43:09;4.78;;;3.30;;
31298;SDS011;17927;52.350;13.402;2023-08-24T02:45:34;4.03;;;3.47;;
31298;SDS011;17927;52.350;13.402;2023-08-24T02:47:59;4.75;;;3.08;;
31298;SDS011;17927;52.350;13.402;2023-08-24T02:50:24;4.30;;;3.67;;
31298;SDS011;17927;52.350;13.402;2023-08-24T02:52:50;6.15;;;3.45;;
31298;SDS011;17927;52.350;13.402;2023-08-24T02:55:16;3.65;;;3.28;;
31298;SDS011;17927;52.350;13.402;2023-08-24T02:57:41;4.05;;;3.40;;
31298;SDS011;17927;52.350;13.402;2023-08-24T03:00:07;5.93;;;3.55;;
31298;SDS011;17927;52.350;13.402;2023-08-24T03:02:34;3.47;;;3.25;;
31298;SDS011;17927;52.350;13.402;2023-08-24T03:04:59;3.75;;;3.45;;
31298;SDS011;17927;52.350;13.402;2023-08-24T03:07:25;4.90;;;3.45;;
31298;SDS011;17927;52.350;13.402;2023-08-24T03:09:51;4.05;;;3.65;;
31298;SDS011;17927;52.350;13.402;2023-08-24T03:12:16;3.67;;;3.38;;
31298;SDS011;17927;52.350;13.402;2023-08-24T03:14:41;6.20;;;4.38;;
31298;SDS011;17927;52.350;13.402;2023-08-24T03:17:06;3.20;;;2.97;;
31298;SDS011;17927;52.350;13.402;2023-08-24T03:19:32;3.60;;;3.10;;
31298;SDS011;17927;52.350;13.402;2023-08-24T03:21:57;3.80;;;3.60;;
31298;SDS011;17927;52.350;13.402;2023-08-24T03:24:22;3.88;;;3.55;;
31298;SDS011;17927;52.350;13.402;2023-08-24T03:26:48;4.53;;;3.60;;
31298;SDS011;17927;52.350;13.402;2023-08-24T03:29:13;3.63;;;3.33;;
31298;SDS011;17927;52.350;13.402;2023-08-24T03:31:38;3.47;;;3.28;;
31298;SDS011;17927;52.350;13.402;2023-08-24T03:34:03;4.70;;;3.33;;
31298;SDS011;17927;52.350;13.402;2023-08-24T03:36:29;3.85;;;3.58;;
31298;SDS011;17927;52.350;13.402;2023-08-24T03:38:54;3.38;;;3.17;;
31298;SDS011;17927;52.350;13.402;2023-08-24T03:41:19;3.58;;;3.28;;
31298;SDS011;17927;52.350;13.402;2023-08-24T03:43:44;3.50;;;3.22;;
31298;SDS011;17927;52.350;13.402;2023-08-24T03:46:10;3.20;;;3.00;;
31298;SDS011;17927;52.350;13.402;2023-08-24T03:48:35;3.63;;;3.33;;
31298;SDS011;17927;52.350;13.402;2023-08-24T03:51:01;4.78;;;3.40;;
31298;SDS011;17927;52.350;13.402;2023-08-24T03:53:26;3.83;;;3.53;;
31298;SDS011;17927;52.350;13.402;2023-08-24T03:55:51;3.95;;;3.65;;
31298;SDS011;17927;52.350;13.402;2023-08-24T03:58:17;5.45;;;4.15;;
31298;SDS011;17927;52.350;13.402;2023-08-24T04:00:43;4.47;;;4.07;;
31298;SDS011;17927;52.350;13.402;2023-08-24T04:03:09;7.28;;;6.22;;
31298;SDS011;17927;52.350;13.402;2023-08-24T04:05:35;5.72;;;5.32;;
31298;SDS011;17927;52.350;13.402;2023-08-24T04:08:00;4.63;;;4.22;;
31298;SDS011;17927;52.350;13.402;2023-08-24T04:10:26;7.40;;;5.32;;
31298;SDS011;17927;52.350;13.402;2023-08-24T04:12:51;8.38;;;5.55;;
31298;SDS011;17927;52.350;13.402;2023-08-24T04:15:16;5.88;;;4.78;;
31298;SDS011;17927;52.350;13.402;2023-08-24T04:17:43;6.07;;;4.40;;
31298;SDS011;17927;52.350;13.402;2023-08-24T04:20:08;5.32;;;4.93;;
31298;SDS011;17927;52.350;13.402;2023-08-24T04:22:34;6.35;;;5.30;;
31298;SDS011;17927;52.350;13.402;2023-08-24T04:24:59;4.72;;;4.32;;
31298;SDS011;17927;52.350;13.402;2023-08-24T04:27:25;4.63;;;4.32;;
31298;SDS011;17927;52.350;13.402;2023-08-24T04:29:50;4.20;;;3.90;;
31298;SDS011;17927;52.350;13.402;2023-08-24T04:32:15;4.00;;;3.80;;
31298;SDS011;17927;52.350;13.402;2023-08-24T04:34:40;4.50;;;4.10;;
31298;SDS011;17927;52.350;13.402;2023-08-24T04:37:06;5.10;;;3.65;;
31298;SDS011;17927;52.350;13.402;2023-08-24T04:39:31;3.60;;;3.30;;
31298;SDS011;17927;52.350;13.402;2023-08-24T04:41:57;4.38;;;4.03;;
31298;SDS011;17927;52.350;13.402;2023-08-24T04:44:22;3.92;;;3.63;;
31298;SDS011;17927;52.350;13.402;2023-08-24T04:46:48;4.22;;;3.85;;
31298;SDS011;17927;52.350;13.402;2023-08-24T04:49:14;4.13;;;3.83;;
31298;SDS011;17927;52.350;13.402;2023-08-24T04:51:39;5.45;;;4.50;;
31298;SDS011;17927;52.350;13.402;2023-08-24T04:54:04;4.50;;;4.10;;
31298;SDS011;17927;52.350;13.402;2023-08-24T04:56:29;4.25;;;3.70;;
31298;SDS011;17927;52.350;13.402;2023-08-24T04:58:55;4.20;;;3.85;;
31298;SDS011;17927;52.350;13.402;2023-08-24T05:01:25;5.07;;;3.77;;
31298;SDS011;17927;52.350;13.402;2023-08-24T05:03:52;4.50;;;3.63;;
31298;SDS011;17927;52.350;13.402;2023-08-24T05:06:18;3.83;;;3.63;;
31298;SDS011;17927;52.350;13.402;2023-08-24T05:08:44;4.97;;;3.80;;
31298;SDS011;17927;52.350;13.402;2023-08-24T05:11:18;3.63;;;3.33;;
31298;SDS011;17927;52.350;13.402;2023-08-24T05:13:45;4.25;;;3.80;;
31298;SDS011;17927;52.350;13.402;2023-08-24T05:16:11;5.78;;;4.30;;
31298;SDS011;17927;52.350;13.402;2023-08-24T05:18:37;8.32;;;3.60;;
31298;SDS011;17927;52.350;13.402;2023-08-24T05:21:03;3.95;;;2.90;;
31298;SDS011;17927;52.350;13.402;2023-08-24T05:23:29;3.88;;;3.50;;
31298;SDS011;17927;52.350;13.402;2023-08-24T05:25:56;3.47;;;3.17;;
31298;SDS011;17927;52.350;13.402;2023-08-24T05:28:21;3.58;;;3.28;;
31298;SDS011;17927;52.350;13.402;2023-08-24T05:30:47;4.25;;;2.90;;
31298;SDS011;17927;52.350;13.402;2023-08-24T05:33:13;8.38;;;3.45;;
31298;SDS011;17927;52.350;13.402;2023-08-24T05:35:38;3.53;;;3.13;;
31298;SDS011;17927;52.350;13.402;2023-08-24T05:38:03;5.18;;;3.08;;
31298;SDS011;17927;52.350;13.402;2023-08-24T05:40:29;3.67;;;3.42;;
31298;SDS011;17927;52.350;13.402;2023-08-24T05:42:54;3.15;;;2.83;;
31298;SDS011;17927;52.350;13.402;2023-08-24T05:45:19;4.63;;;3.47;;
31298;SDS011;17927;52.350;13.402;2023-08-24T05:47:44;3.63;;;3.30;;
31298;SDS011;17927;52.350;13.402;2023-08-24T05:50:10;3.97;;;3.03;;
31298;SDS011;17927;52.350;13.402;2023-08-24T05:52:36;4.00;;;3.42;;
31298;SDS011;17927;52.350;13.402;2023-08-24T05:55:02;4.13;;;3.67;;
31298;SDS011;17927;52.350;13.402;2023-08-24T05:57:27;3.17;;;2.95;;
31298;SDS011;17927;52.350;13.402;2023-08-24T05:59:52;4.00;;;3.60;;
31298;SDS011;17927;52.350;13.402;2023-08-24T06:02:17;4.53;;;3.35;;
31298;SDS011;17927;52.350;13.402;2023-08-24T06:04:43;4.78;;;3.17;;
31298;SDS011;17927;52.350;13.402;2023-08-24T06:07:08;4.70;;;3.30;;
31298;SDS011;17927;52.350;13.402;2023-08-24T06:09:33;3.22;;;2.92;;
31298;SDS011;17927;52.350;13.402;2023-08-24T06:11:59;4.30;;;3.00;;
31298;SDS011;17927;52.350;13.402;2023-08-24T06:14:24;3.25;;;2.95;;
31298;SDS011;17927;52.350;13.402;2023-08-24T06:16:50;3.53;;;2.55;;
31298;SDS011;17927;52.350;13.402;2023-08-24T06:19:18;8.75;;;3.03;;
31298;SDS011;17927;52.350;13.402;2023-08-24T06:21:43;5.15;;;2.63;;
31298;SDS011;17927;52.350;13.402;2023-08-24T06:24:08;4.65;;;2.70;;
31298;SDS011;17927;52.350;13.402;2023-08-24T06:26:34;2.45;;;2.35;;
31298;SDS011;17927;52.350;13.402;2023-08-24T06:28:59;3.58;;;2.35;;
31298;SDS011;17927;52.350;13.402;2023-08-24T06:31:24;5.50;;;2.08;;
31298;SDS011;17927;52.350;13.402;2023-08-24T06:33:49;2.67;;;2.47;;
31298;SDS011;17927;52.350;13.402;2023-08-24T06:36:15;5.05;;;2.25;;
31298;SDS011;17927;52.350;13.402;2023-08-24T06:38:40;4.97;;;3.40;;
31298;SDS011;17927;52.350;13.402;2023-08-24T06:41:05;4.05;;;2.50;;
31298;SDS011;17927;52.350;13.402;2023-08-24T06:43:30;4.03;;;2.80;;
31298;SDS011;17927;52.350;13.402;2023-08-24T06:45:56;3.03;;;2.75;;
31298;SDS011;17927;52.350;13.402;2023-08-24T06:48:21;3.05;;;2.35;;
31298;SDS011;17927;52.350;13.402;2023-08-24T06:50:46;2.85;;;2.50;;
31298;SDS011;17927;52.350;13.402;2023-08-24T06:53:12;6.07;;;2.67;;
31298;SDS011;17927;52.350;13.402;2023-08-24T06:55:37;3.55;;;2.33;;
31298;SDS011;17927;52.350;13.402;2023-08-24T06:58:02;5.68;;;2.78;;
31298;SDS011;17927;52.350;13.402;2023-08-24T07:00:30;2.63;;;2.30;;
31298;SDS011;17927;52.350;13.402;2023-08-24T07:02:56;2.40;;;2.20;;
31298;SDS011;17927;52.350;13.402;2023-08-24T07:05:21;3.55;;;2.10;;
31298;SDS011;17927;52.350;13.402;2023-08-24T07:07:46;2.75;;;2.40;;
31298;SDS011;17927;52.350;13.402;2023-08-24T07:10:12;3.05;;;2.22;;
31298;SDS011;17927;52.350;13.402;2023-08-24T07:12:38;2.45;;;2.13;;
31298;SDS011;17927;52.350;13.402;2023-08-24T07:15:06;3.33;;;2.83;;
31298;SDS011;17927;52.350;13.402;2023-08-24T07:17:32;2.30;;;2.10;;
31298;SDS011;17927;52.350;13.402;2023-08-24T07:19:57;3.08;;;2.40;;
31298;SDS011;17927;52.350;13.402;2023-08-24T07:22:23;4.32;;;3.45;;
31298;SDS011;17927;52.350;13.402;2023-08-24T07:24:48;3.63;;;2.30;;
31298;SDS011;17927;52.350;13.402;2023-08-24T07:27:17;2.63;;;2.38;;
31298;SDS011;17927;52.350;13.402;2023-08-24T07:29:43;5.72;;;2.60;;
31298;SDS011;17927;52.350;13.402;2023-08-24T07:32:08;6.63;;;2.22;;
31298;SDS011;17927;52.350;13.402;2023-08-24T07:34:33;6.45;;;2.30;;
31298;SDS011;17927;52.350;13.402;2023-08-24T07:36:59;5.68;;;3.30;;
31298;SDS011;17927;52.350;13.402;2023-08-24T07:39:24;2.25;;;2.15;;
31298;SDS011;17927;52.350;13.402;2023-08-24T07:41:49;4.72;;;2.30;;
31298;SDS011;17927;52.350;13.402;2023-08-24T07:44:14;3.20;;;2.60;;
31298;SDS011;17927;52.350;13.402;2023-08-24T07:46:40;2.40;;;2.20;;
31298;SDS011;17927;52.350;13.402;2023-08-24T07:49:05;2.13;;;1.85;;
31298;SDS011;17927;52.350;13.402;2023-08-24T07:51:32;2.22;;;2.03;;
31298;SDS011;17927;52.350;13.402;2023-08-24T07:53:58;5.15;;;2.15;;
31298;SDS011;17927;52.350;13.402;2023-08-24T07:56:23;5.93;;;1.83;;
31298;SDS011;17927;52.350;13.402;2023-08-24T07:58:48;4.75;;;2.17;;
31298;SDS011;17927;52.350;13.402;2023-08-24T08:01:13;3.50;;;2.00;;
31298;SDS011;17927;52.350;13.402;2023-08-24T08:03:39;3.10;;;2.10;;
31298;SDS011;17927;52.350;13.402;2023-08-24T08:06:04;6.72;;;2.35;;
31298;SDS011;17927;52.350;13.402;2023-08-24T08:08:29;5.22;;;2.22;;
31298;SDS011;17927;52.350;13.402;2023-08-24T08:10:58;1.52;;;1.42;;
31298;SDS011;17927;52.350;13.402;2023-08-24T08:13:25;5.28;;;2.00;;
31298;SDS011;17927;52.350;13.402;2023-08-24T08:15:50;1.73;;;1.50;;
31298;SDS011;17927;52.350;13.402;2023-08-24T08:18:15;2.60;;;1.63;;
31298;SDS011;17927;52.350;13.402;2023-08-24T08:20:41;3.30;;;1.80;;
31298;SDS011;17927;52.350;13.402;2023-08-24T08:23:06;3.17;;;1.92;;
31298;SDS011;17927;52.350;13.402;2023-08-24T08:25:31;3.22;;;1.80;;
31298;SDS011;17927;52.350;13.402;2023-08-24T08:27:56;2.20;;;2.00;;
31298;SDS011;17927;52.350;13.402;2023-08-24T08:30:22;1.50;;;1.38;;
31298;SDS011;17927;52.350;13.402;2023-08-24T08:32:47;2.90;;;1.95;;
31298;SDS011;17927;52.350;13.402;2023-08-24T08:35:13;2.70;;;1.90;;
31298;SDS011;17927;52.350;13.402;2023-08-24T08:37:38;2.22;;;1.90;;
31298;SDS011;17927;52.350;13.402;2023-08-24T08:40:04;2.40;;;2.05;;
31298;SDS011;17927;52.350;13.402;2023-08-24T08:42:32;2.45;;;1.90;;
31298;SDS011;17927;52.350;13.402;2023-08-24T08:44:59;2.03;;;1.50;;
31298;SDS011;17927;52.350;13.402;2023-08-24T08:47:24;5.05;;;2.40;;
31298;SDS011;17927;52.350;13.402;2023-08-24T08:49:50;4.47;;;1.98;;
31298;SDS011;17927;52.350;13.402;2023-08-24T08:52:16;1.95;;;1.67;;
31298;SDS011;17927;52.350;13.402;2023-08-24T08:54:42;3.28;;;1.70;;
31298;SDS011;17927;52.350;13.402;2023-08-24T08:57:07;3.65;;;1.80;;
31298;SDS011;17927;52.350;13.402;2023-08-24T08:59:32;1.75;;;1.65;;
31298;SDS011;17927;52.350;13.402;2023-08-24T09:01:58;3.08;;;1.73;;
31298;SDS011;17927;52.350;13.402;2023-08-24T09:04:26;1.63;;;1.52;;
31298;SDS011;17927;52.350;13.402;2023-08-24T09:06:52;4.00;;;1.65;;
31298;SDS011;17927;52.350;13.402;2023-08-24T09:09:17;2.97;;;1.80;;
31298;SDS011;17927;52.350;13.402;2023-08-24T09:11:43;2.63;;;1.75;;
31298;SDS011;17927;52.350;13.402;2023-08-24T09:14:12;2.88;;;1.40;;
31298;SDS011;17927;52.350;13.402;2023-08-24T09:16:37;2.03;;;1.42;;
31298;SDS011;17927;52.350;13.402;2023-08-24T09:19:04;2.90;;;1.73;;
31298;SDS011;17927;52.350;13.402;2023-08-24T09:21:30;2.25;;;1.55;;
31298;SDS011;17927;52.350;13.402;2023-08-24T09:23:55;1.95;;;1.50;;
31298;SDS011;17927;52.350;13.402;2023-08-24T09:26:34;3.22;;;1.52;;
31298;SDS011;17927;52.350;13.402;2023-08-24T09:29:11;3.13;;;1.70;;
31298;SDS011;17927;52.350;13.402;2023-08-24T09:31:40;2.45;;;1.77;;
31298;SDS011;17927;52.350;13.402;2023-08-24T09:34:08;2.90;;;1.90;;
31298;SDS011;17927;52.350;13.402;2023-08-24T09:36:34;4.70;;;1.67;;
31298;SDS011;17927;52.350;13.402;2023-08-24T09:39:01;4.75;;;1.90;;
31298;SDS011;17927;52.350;13.402;2023-08-24T09:41:46;3.03;;;1.80;;
31298;SDS011;17927;52.350;13.402;2023-08-24T09:44:13;2.28;;;1.55;;
31298;SDS011;17927;52.350;13.402;2023-08-24T09:46:39;1.95;;;1.40;;
31298;SDS011;17927;52.350;13.402;2023-08-24T09:49:05;1.02;;;1.02;;
31298;SDS011;17927;52.350;13.402;2023-08-24T09:51:33;5.47;;;1.75;;
31298;SDS011;17927;52.350;13.402;2023-08-24T09:53:59;2.30;;;1.50;;
31298;SDS011;17927;52.350;13.402;2023-08-24T09:56:29;3.70;;;1.38;;
31298;SDS011;17927;52.350;13.402;2023-08-24T09:58:56;3.53;;;1.80;;
31298;SDS011;17927;52.350;13.402;2023-08-24T10:01:25;1.55;;;1.20;;
31298;SDS011;17927;52.350;13.402;2023-08-24T10:03:50;2.92;;;1.38;;
31298;SDS011;17927;52.350;13.402;2023-08-24T10:08:47;1.73;;;1.30;;
31298;SDS011;17927;52.350;13.402;2023-08-24T10:11:19;1.17;;;1.08;;
31298;SDS011;17927;52.350;13.402;2023-08-24T10:14:04;1.20;;;1.10;;
31298;SDS011;17927;52.350;13.402;2023-08-24T10:16:33;2.00;;;1.35;;
31298;SDS011;17927;52.350;13.402;2023-08-24T10:18:59;4.30;;;1.67;;
31298;SDS011;17927;52.350;13.402;2023-08-24T10:21:25;3.03;;;1.50;;
31298;SDS011;17927;52.350;13.402;2023-08-24T10:23:53;3.70;;;1.15;;
31298;SDS011;17927;52.350;13.402;2023-08-24T10:26:21;2.72;;;1.40;;
31298;SDS011;17927;52.350;13.402;2023-08-24T10:28:47;7.32;;;1.20;;
31298;SDS011;17927;52.350;13.402;2023-08-24T10:31:15;1.85;;;0.95;;
31298;SDS011;17927;52.350;13.402;2023-08-24T10:33:40;1.80;;;1.08;;
31298;SDS011;17927;52.350;13.402;2023-08-24T10:36:06;1.85;;;1.75;;
31298;SDS011;17927;52.350;13.402;2023-08-24T10:38:35;3.78;;;1.30;;
31298;SDS011;17927;52.350;13.402;2023-08-24T10:41:08;1.40;;;1.20;;
31298;SDS011;17927;52.350;13.402;2023-08-24T10:43:37;3.33;;;1.33;;
31298;SDS011;17927;52.350;13.402;2023-08-24T10:46:03;4.35;;;1.73;;
31298;SDS011;17927;52.350;13.402;2023-08-24T10:51:16;10.18;;;2.25;;
31298;SDS011;17927;52.350;13.402;2023-08-24T10:53:55;4.32;;;1.42;;
31298;SDS011;17927;52.350;13.402;2023-08-24T10:59:12;2.45;;;1.58;;
31298;SDS011;17927;52.350;13.402;2023-08-24T11:01:43;1.33;;;1.15;;
31298;SDS011;17927;52.350;13.402;2023-08-24T11:04:19;2.78;;;1.45;;
31298;SDS011;17927;52.350;13.402;2023-08-24T11:06:57;3.22;;;1.48;;
31298;SDS011;17927;52.350;13.402;2023-08-24T11:09:24;2.45;;;1.73;;
31298;SDS011;17927;52.350;13.402;2023-08-24T11:12:02;1.63;;;1.52;;
31298;SDS011;17927;52.350;13.402;2023-08-24T11:17:17;3.08;;;1.50;;
31298;SDS011;17927;52.350;13.402;2023-08-24T11:19:49;2.08;;;1.98;;
31298;SDS011;17927;52.350;13.402;2023-08-24T11:22:18;4.68;;;1.63;;
31298;SDS011;17927;52.350;13.402;2023-08-24T11:24:44;1.50;;;1.40;;
31298;SDS011;17927;52.350;13.402;2023-08-24T11:27:10;1.80;;;1.63;;
31298;SDS011;17927;52.350;13.402;2023-08-24T11:29:35;2.20;;;1.52;;
31298;SDS011;17927;52.350;13.402;2023-08-24T11:32:01;3.40;;;1.70;;
31298;SDS011;17927;52.350;13.402;2023-08-24T11:34:27;3.25;;;1.70;;
31298;SDS011;17927;52.350;13.402;2023-08-24T11:36:52;2.75;;;2.05;;
31298;SDS011;17927;52.350;13.402;2023-08-24T11:39:19;6.82;;;2.38;;
31298;SDS011;17927;52.350;13.402;2023-08-24T11:42:01;6.03;;;1.60;;
31298;SDS011;17927;52.350;13.402;2023-08-24T11:44:46;1.85;;;1.50;;
31298;SDS011;17927;52.350;13.402;2023-08-24T11:47:12;2.90;;;1.60;;
31298;SDS011;17927;52.350;13.402;2023-08-24T11:49:38;2.25;;;1.40;;
31298;SDS011;17927;52.350;13.402;2023-08-24T11:52:03;2.65;;;1.70;;
31298;SDS011;17927;52.350;13.402;2023-08-24T11:54:29;3.33;;;1.48;;
31298;SDS011;17927;52.350;13.402;2023-08-24T11:56:57;4.47;;;1.77;;
31298;SDS011;17927;52.350;13.402;2023-08-24T11:59:22;2.75;;;1.42;;
31298;SDS011;17927;52.350;13.402;2023-08-24T12:01:48;2.53;;;2.13;;
31298;SDS011;17927;52.350;13.402;2023-08-24T12:04:14;1.75;;;1.50;;
31298;SDS011;17927;52.350;13.402;2023-08-24T12:06:39;2.28;;;1.55;;
31298;SDS011;17927;52.350;13.402;2023-08-24T12:09:05;2.03;;;1.65;;
31298;SDS011;17927;52.350;13.402;2023-08-24T12:11:34;2.85;;;1.73;;
31298;SDS011;17927;52.350;13.402;2023-08-24T12:14:00;2.90;;;1.50;;
31298;SDS011;17927;52.350;13.402;2023-08-24T12:16:25;2.42;;;1.55;;
31298;SDS011;17927;52.350;13.402;2023-08-24T12:18:56;4.78;;;1.58;;
31298;SDS011;17927;52.350;13.402;2023-08-24T12:21:24;5.32;;;1.70;;
31298;SDS011;17927;52.350;13.402;2023-08-24T12:24:00;1.75;;;1.60;;
31298;SDS011;17927;52.350;13.402;2023-08-24T12:26:27;3.05;;;1.58;;
31298;SDS011;17927;52.350;13.402;2023-08-24T12:28:53;1.63;;;1.30;;
31298;SDS011;17927;52.350;13.402;2023-08-24T12:31:20;4.00;;;1.50;;
31298;SDS011;17927;52.350;13.402;2023-08-24T12:33:46;1.63;;;1.52;;
31298;SDS011;17927;52.350;13.402;2023-08-24T12:36:23;3.95;;;1.38;;
31298;SDS011;17927;52.350;13.402;2023-08-24T12:38:48;1.65;;;1.55;;
31298;SDS011;17927;52.350;13.402;2023-08-24T12:41:14;1.47;;;1.37;;
31298;SDS011;17927;52.350;13.402;2023-08-24T12:43:39;1.60;;;1.50;;
31298;SDS011;17927;52.350;13.402;2023-08-24T12:46:04;1.53;;;1.43;;
31298;SDS011;17927;52.350;13.402;2023-08-24T12:48:29;1.23;;;1.13;;
31298;SDS011;17927;52.350;13.402;2023-08-24T12:50:55;1.40;;;1.27;;
31298;SDS011;17927;52.350;13.402;2023-08-24T12:53:20;2.60;;;1.30;;
31298;SDS011;17927;52.350;13.402;2023-08-24T12:55:45;1.63;;;1.10;;
31298;SDS011;17927;52.350;13.402;2023-08-24T12:58:11;2.50;;;1.20;;
31298;SDS011;17927;52.350;13.402;2023-08-24T13:00:36;2.07;;;1.30;;
31298;SDS011;17927;52.350;13.402;2023-08-24T13:03:01;2.72;;;1.38;;
31298;SDS011;17927;52.350;13.402;2023-08-24T13:05:26;1.35;;;1.25;;
31298;SDS011;17927;52.350;13.402;2023-08-24T13:07:52;1.67;;;1.50;;
31298;SDS011;17927;52.350;13.402;2023-08-24T13:10:17;1.90;;;1.60;;
31298;SDS011;17927;52.350;13.402;2023-08-24T13:12:42;1.40;;;1.30;;
31298;SDS011;17927;52.350;13.402;2023-08-24T13:15:08;1.38;;;1.23;;
31298;SDS011;17927;52.350;13.402;2023-08-24T13:17:34;1.40;;;1.23;;
31298;SDS011;17927;52.350;13.402;2023-08-24T13:20:00;2.33;;;1.45;;
31298;SDS011;17927;52.350;13.402;2023-08-24T13:22:25;1.55;;;1.45;;
31298;SDS011;17927;52.350;13.402;2023-08-24T13:24:50;1.90;;;1.30;;
31298;SDS011;17927;52.350;13.402;2023-08-24T13:27:15;7.32;;;1.67;;
31298;SDS011;17927;52.350;13.402;2023-08-24T13:29:41;1.60;;;1.23;;
31298;SDS011;17927;52.350;13.402;2023-08-24T13:32:07;2.83;;;1.20;;
31298;SDS011;17927;52.350;13.402;2023-08-24T13:34:32;2.45;;;1.40;;
31298;SDS011;17927;52.350;13.402;2023-08-24T13:36:58;2.85;;;1.33;;
31298;SDS011;17927;52.350;13.402;2023-08-24T13:39:27;2.13;;;1.50;;
31298;SDS011;17927;52.350;13.402;2023-08-24T13:42:01;1.58;;;1.48;;
31298;SDS011;17927;52.350;13.402;2023-08-24T13:44:26;1.27;;;1.17;;
31298;SDS011;17927;52.350;13.402;2023-08-24T13:46:52;2.20;;;1.70;;
31298;SDS011;17927;52.350;13.402;2023-08-24T13:49:18;1.63;;;1.53;;
31298;SDS011;17927;52.350;13.402;2023-08-24T13:51:43;1.80;;;1.70;;
31298;SDS011;17927;52.350;13.402;2023-08-24T13:54:16;3.10;;;1.50;;
31298;SDS011;17927;52.350;13.402;2023-08-24T13:56:46;1.55;;;1.40;;
31298;SDS011;17927;52.350;13.402;2023-08-24T13:59:12;1.60;;;1.15;;
31298;SDS011;17927;52.350;13.402;2023-08-24T14:01:39;1.20;;;1.17;;
31298;SDS011;17927;52.350;13.402;2023-08-24T14:04:05;1.25;;;1.08;;
31298;SDS011;17927;52.350;13.402;2023-08-24T14:06:31;2.15;;;1.30;;
31298;SDS011;17927;52.350;13.402;2023-08-24T14:08:59;1.50;;;1.40;;
31298;SDS011;17927;52.350;13.402;2023-08-24T14:11:24;2.38;;;2.28;;
31298;SDS011;17927;52.350;13.402;2023-08-24T14:13:50;3.47;;;1.93;;
31298;SDS011;17927;52.350;13.402;2023-08-24T14:16:16;2.25;;;2.05;;
31298;SDS011;17927;52.350;13.402;2023-08-24T14:18:42;3.10;;;1.40;;
31298;SDS011;17927;52.350;13.402;2023-08-24T14:21:08;1.33;;;1.20;;
31298;SDS011;17927;52.350;13.402;2023-08-24T14:23:33;3.23;;;1.77;;
31298;SDS011;17927;52.350;13.402;2023-08-24T14:25:58;1.95;;;1.85;;
31298;SDS011;17927;52.350;13.402;2023-08-24T14:28:23;3.83;;;1.70;;
31298;SDS011;17927;52.350;13.402;2023-08-24T14:30:52;1.97;;;1.50;;
31298;SDS011;17927;52.350;13.402;2023-08-24T14:33:17;3.47;;;1.63;;
31298;SDS011;17927;52.350;13.402;2023-08-24T14:35:52;1.60;;;1.50;;
31298;SDS011;17927;52.350;13.402;2023-08-24T14:38:18;2.13;;;2.00;;
31298;SDS011;17927;52.350;13.402;2023-08-24T14:40:44;2.60;;;1.95;;
31298;SDS011;17927;52.350;13.402;2023-08-24T14:43:09;1.85;;;1.75;;
31298;SDS011;17927;52.350;13.402;2023-08-24T14:45:35;1.73;;;1.60;;
31298;SDS011;17927;52.350;13.402;2023-08-24T14:48:00;1.85;;;1.60;;